sensor_id;sensor_type;location;lat;lon;timestamp;P1;durP1;ratioP1;P2;durP2;ratioP2
57947;SDS011;43754;56.992;24.292;2023-05-10T00:00:53;20.55;;;10.38;;
57947;SDS011;43754;56.992;24.292;2023-05-10T00:03:25;18.60;;;9.23;;
57947;SDS011;43754;56.992;24.292;2023-05-10T00:05:57;15.48;;;8.43;;
57947;SDS011;43754;56.992;24.292;2023-05-10T00:08:29;16.40;;;7.97;;
57947;SDS011;43754;56.992;24.292;2023-05-10T00:11:01;13.15;;;8.10;;
57947;SDS011;43754;56.992;24.292;2023-05-10T00:13:33;12.85;;;6.88;;
57947;SDS011;43754;56.992;24.292;2023-05-10T00:16:06;11.30;;;6.97;;
57947;SDS011;43754;56.992;24.292;2023-05-10T00:18:38;18.38;;;7.20;;
57947;SDS011;43754;56.992;24.292;2023-05-10T00:21:10;14.23;;;7.53;;
57947;SDS011;43754;56.992;24.292;2023-05-10T00:23:42;13.05;;;6.63;;
57947;SDS011;43754;56.992;24.292;2023-05-10T00:26:14;13.25;;;7.40;;
57947;SDS011;43754;56.992;24.292;2023-05-10T00:28:53;20.35;;;8.35;;
57947;SDS011;43754;56.992;24.292;2023-05-10T00:31:27;15.85;;;7.72;;
57947;SDS011;43754;56.992;24.292;2023-05-10T00:34:01;19.33;;;9.05;;
57947;SDS011;43754;56.992;24.292;2023-05-10T00:36:33;25.90;;;9.80;;
57947;SDS011;43754;56.992;24.292;2023-05-10T00:39:05;24.40;;;8.98;;
57947;SDS011;43754;56.992;24.292;2023-05-10T00:41:37;18.42;;;8.95;;
57947;SDS011;43754;56.992;24.292;2023-05-10T00:44:11;15.25;;;8.52;;
57947;SDS011;43754;56.992;24.292;2023-05-10T00:46:44;18.10;;;8.50;;
57947;SDS011;43754;56.992;24.292;2023-05-10T00:49:17;19.92;;;9.82;;
57947;SDS011;43754;56.992;24.292;2023-05-10T00:51:50;19.45;;;10.00;;
57947;SDS011;43754;56.992;24.292;2023-05-10T00:54:22;21.75;;;10.02;;
57947;SDS011;43754;56.992;24.292;2023-05-10T00:56:55;20.98;;;9.80;;
57947;SDS011;43754;56.992;24.292;2023-05-10T00:59:28;18.73;;;9.52;;
57947;SDS011;43754;56.992;24.292;2023-05-10T01:02:02;18.10;;;9.52;;
57947;SDS011;43754;56.992;24.292;2023-05-10T01:04:34;14.90;;;8.40;;
57947;SDS011;43754;56.992;24.292;2023-05-10T01:07:07;18.88;;;8.60;;
57947;SDS011;43754;56.992;24.292;2023-05-10T01:09:39;17.30;;;9.77;;
57947;SDS011;43754;56.992;24.292;2023-05-10T01:12:11;23.77;;;11.23;;
57947;SDS011;43754;56.992;24.292;2023-05-10T01:14:43;18.10;;;10.25;;
57947;SDS011;43754;56.992;24.292;2023-05-10T01:17:17;19.65;;;9.57;;
57947;SDS011;43754;56.992;24.292;2023-05-10T01:19:49;17.48;;;9.68;;
57947;SDS011;43754;56.992;24.292;2023-05-10T01:22:38;25.48;;;9.98;;
57947;SDS011;43754;56.992;24.292;2023-05-10T01:28:42;18.77;;;11.18;;
57947;SDS011;43754;56.992;24.292;2023-05-10T01:34:40;20.42;;;11.20;;
57947;SDS011;43754;56.992;24.292;2023-05-10T01:37:20;20.38;;;11.15;;
57947;SDS011;43754;56.992;24.292;2023-05-10T01:39:58;22.83;;;11.40;;
57947;SDS011;43754;56.992;24.292;2023-05-10T01:42:36;22.02;;;11.88;;
57947;SDS011;43754;56.992;24.292;2023-05-10T01:45:14;21.92;;;12.50;;
57947;SDS011;43754;56.992;24.292;2023-05-10T01:47:54;28.20;;;13.55;;
57947;SDS011;43754;56.992;24.292;2023-05-10T01:50:40;22.35;;;11.98;;
57947;SDS011;43754;56.992;24.292;2023-05-10T01:53:17;23.38;;;13.85;;
57947;SDS011;43754;56.992;24.292;2023-05-10T01:55:52;21.45;;;13.95;;
57947;SDS011;43754;56.992;24.292;2023-05-10T01:58:27;23.33;;;13.65;;
57947;SDS011;43754;56.992;24.292;2023-05-10T02:01:03;17.73;;;12.25;;
57947;SDS011;43754;56.992;24.292;2023-05-10T02:03:37;22.73;;;13.57;;
57947;SDS011;43754;56.992;24.292;2023-05-10T02:06:12;19.85;;;14.23;;
57947;SDS011;43754;56.992;24.292;2023-05-10T02:08:48;22.75;;;14.07;;
57947;SDS011;43754;56.992;24.292;2023-05-10T02:11:21;20.27;;;13.27;;
57947;SDS011;43754;56.992;24.292;2023-05-10T02:13:54;18.65;;;11.00;;
57947;SDS011;43754;56.992;24.292;2023-05-10T02:16:31;23.42;;;12.45;;
57947;SDS011;43754;56.992;24.292;2023-05-10T02:19:04;20.13;;;11.48;;
57947;SDS011;43754;56.992;24.292;2023-05-10T02:21:38;21.15;;;11.60;;
57947;SDS011;43754;56.992;24.292;2023-05-10T02:24:11;21.83;;;11.98;;
57947;SDS011;43754;56.992;24.292;2023-05-10T02:26:44;21.88;;;11.30;;
57947;SDS011;43754;56.992;24.292;2023-05-10T02:29:18;18.30;;;10.63;;
57947;SDS011;43754;56.992;24.292;2023-05-10T02:31:52;18.35;;;10.63;;
57947;SDS011;43754;56.992;24.292;2023-05-10T02:34:27;17.85;;;10.90;;
57947;SDS011;43754;56.992;24.292;2023-05-10T02:37:02;19.55;;;10.52;;
57947;SDS011;43754;56.992;24.292;2023-05-10T02:39:36;18.77;;;10.25;;
57947;SDS011;43754;56.992;24.292;2023-05-10T02:42:12;16.95;;;10.13;;
57947;SDS011;43754;56.992;24.292;2023-05-10T02:44:48;19.73;;;10.25;;
57947;SDS011;43754;56.992;24.292;2023-05-10T02:47:24;19.83;;;9.75;;
57947;SDS011;43754;56.992;24.292;2023-05-10T02:49:56;15.07;;;8.25;;
57947;SDS011;43754;56.992;24.292;2023-05-10T02:52:34;16.70;;;8.70;;
57947;SDS011;43754;56.992;24.292;2023-05-10T02:55:11;19.98;;;8.48;;
57947;SDS011;43754;56.992;24.292;2023-05-10T02:57:48;26.35;;;10.50;;
57947;SDS011;43754;56.992;24.292;2023-05-10T03:00:23;28.10;;;10.85;;
57947;SDS011;43754;56.992;24.292;2023-05-10T03:02:56;29.75;;;10.75;;
57947;SDS011;43754;56.992;24.292;2023-05-10T03:05:29;24.92;;;11.38;;
57947;SDS011;43754;56.992;24.292;2023-05-10T03:08:06;26.65;;;11.45;;
57947;SDS011;43754;56.992;24.292;2023-05-10T03:10:41;19.05;;;9.65;;
57947;SDS011;43754;56.992;24.292;2023-05-10T03:13:25;20.80;;;11.57;;
57947;SDS011;43754;56.992;24.292;2023-05-10T03:16:06;25.80;;;11.27;;
57947;SDS011;43754;56.992;24.292;2023-05-10T03:18:42;18.33;;;9.95;;
57947;SDS011;43754;56.992;24.292;2023-05-10T03:21:19;21.08;;;8.25;;
57947;SDS011;43754;56.992;24.292;2023-05-10T03:23:57;15.43;;;9.05;;
57947;SDS011;43754;56.992;24.292;2023-05-10T03:26:33;19.50;;;8.45;;
57947;SDS011;43754;56.992;24.292;2023-05-10T03:29:14;18.58;;;8.70;;
57947;SDS011;43754;56.992;24.292;2023-05-10T03:31:47;20.05;;;7.22;;
57947;SDS011;43754;56.992;24.292;2023-05-10T03:34:22;16.83;;;6.93;;
57947;SDS011;43754;56.992;24.292;2023-05-10T03:36:56;10.60;;;5.95;;
57947;SDS011;43754;56.992;24.292;2023-05-10T03:39:33;21.27;;;6.70;;
57947;SDS011;43754;56.992;24.292;2023-05-10T03:42:06;12.15;;;7.03;;
57947;SDS011;43754;56.992;24.292;2023-05-10T03:44:38;13.98;;;5.80;;
57947;SDS011;43754;56.992;24.292;2023-05-10T03:47:10;13.07;;;6.00;;
57947;SDS011;43754;56.992;24.292;2023-05-10T03:49:42;20.67;;;6.43;;
57947;SDS011;43754;56.992;24.292;2023-05-10T03:52:16;16.50;;;6.30;;
57947;SDS011;43754;56.992;24.292;2023-05-10T03:54:50;13.88;;;5.60;;
57947;SDS011;43754;56.992;24.292;2023-05-10T03:57:22;12.50;;;5.93;;
57947;SDS011;43754;56.992;24.292;2023-05-10T03:59:54;12.18;;;6.13;;
57947;SDS011;43754;56.992;24.292;2023-05-10T04:02:27;14.00;;;5.97;;
57947;SDS011;43754;56.992;24.292;2023-05-10T04:04:59;14.80;;;5.30;;
57947;SDS011;43754;56.992;24.292;2023-05-10T04:07:31;15.45;;;6.05;;
57947;SDS011;43754;56.992;24.292;2023-05-10T04:10:05;10.65;;;6.00;;
57947;SDS011;43754;56.992;24.292;2023-05-10T04:12:37;15.23;;;7.40;;
57947;SDS011;43754;56.992;24.292;2023-05-10T04:15:10;14.50;;;7.20;;
57947;SDS011;43754;56.992;24.292;2023-05-10T04:17:42;15.93;;;7.97;;
57947;SDS011;43754;56.992;24.292;2023-05-10T04:20:14;22.33;;;7.90;;
57947;SDS011;43754;56.992;24.292;2023-05-10T04:22:46;11.18;;;6.72;;
57947;SDS011;43754;56.992;24.292;2023-05-10T04:25:20;18.27;;;6.45;;
57947;SDS011;43754;56.992;24.292;2023-05-10T04:27:52;16.67;;;6.72;;
57947;SDS011;43754;56.992;24.292;2023-05-10T04:30:24;20.05;;;5.88;;
57947;SDS011;43754;56.992;24.292;2023-05-10T04:32:56;16.83;;;6.15;;
57947;SDS011;43754;56.992;24.292;2023-05-10T04:35:28;14.10;;;5.28;;
57947;SDS011;43754;56.992;24.292;2023-05-10T04:38:00;16.42;;;6.55;;
57947;SDS011;43754;56.992;24.292;2023-05-10T04:40:33;26.00;;;6.50;;
57947;SDS011;43754;56.992;24.292;2023-05-10T04:43:05;17.90;;;5.25;;
57947;SDS011;43754;56.992;24.292;2023-05-10T04:45:37;11.13;;;5.55;;
57947;SDS011;43754;56.992;24.292;2023-05-10T04:48:09;15.80;;;5.60;;
57947;SDS011;43754;56.992;24.292;2023-05-10T04:50:41;13.25;;;5.22;;
57947;SDS011;43754;56.992;24.292;2023-05-10T04:53:13;15.50;;;5.22;;
57947;SDS011;43754;56.992;24.292;2023-05-10T04:55:47;12.65;;;5.00;;
57947;SDS011;43754;56.992;24.292;2023-05-10T04:58:20;9.07;;;4.95;;
57947;SDS011;43754;56.992;24.292;2023-05-10T05:00:52;10.98;;;5.40;;
57947;SDS011;43754;56.992;24.292;2023-05-10T05:03:24;10.15;;;5.50;;
57947;SDS011;43754;56.992;24.292;2023-05-10T05:05:56;9.13;;;4.65;;
57947;SDS011;43754;56.992;24.292;2023-05-10T05:08:28;16.73;;;5.68;;
57947;SDS011;43754;56.992;24.292;2023-05-10T05:11:01;19.38;;;5.28;;
57947;SDS011;43754;56.992;24.292;2023-05-10T05:13:34;10.70;;;4.35;;
57947;SDS011;43754;56.992;24.292;2023-05-10T05:16:06;11.10;;;4.60;;
57947;SDS011;43754;56.992;24.292;2023-05-10T05:18:38;14.35;;;4.90;;
57947;SDS011;43754;56.992;24.292;2023-05-10T05:21:13;14.63;;;4.95;;
57947;SDS011;43754;56.992;24.292;2023-05-10T05:23:46;15.90;;;4.93;;
57947;SDS011;43754;56.992;24.292;2023-05-10T05:26:19;12.93;;;4.57;;
57947;SDS011;43754;56.992;24.292;2023-05-10T05:28:52;13.50;;;4.28;;
57947;SDS011;43754;56.992;24.292;2023-05-10T05:31:26;18.83;;;4.63;;
57947;SDS011;43754;56.992;24.292;2023-05-10T05:33:58;10.68;;;4.18;;
57947;SDS011;43754;56.992;24.292;2023-05-10T05:36:30;7.30;;;4.00;;
57947;SDS011;43754;56.992;24.292;2023-05-10T05:39:02;13.32;;;4.03;;
57947;SDS011;43754;56.992;24.292;2023-05-10T05:41:36;15.95;;;4.22;;
57947;SDS011;43754;56.992;24.292;2023-05-10T05:44:08;12.70;;;4.22;;
57947;SDS011;43754;56.992;24.292;2023-05-10T05:46:40;19.23;;;4.47;;
57947;SDS011;43754;56.992;24.292;2023-05-10T05:49:12;15.05;;;3.80;;
57947;SDS011;43754;56.992;24.292;2023-05-10T05:51:44;13.02;;;4.40;;
57947;SDS011;43754;56.992;24.292;2023-05-10T05:54:16;15.10;;;4.00;;
57947;SDS011;43754;56.992;24.292;2023-05-10T05:56:49;11.50;;;3.90;;
57947;SDS011;43754;56.992;24.292;2023-05-10T05:59:22;11.10;;;3.70;;
57947;SDS011;43754;56.992;24.292;2023-05-10T06:01:54;11.25;;;3.80;;
57947;SDS011;43754;56.992;24.292;2023-05-10T06:04:26;8.95;;;3.80;;
57947;SDS011;43754;56.992;24.292;2023-05-10T06:06:58;12.43;;;3.78;;
57947;SDS011;43754;56.992;24.292;2023-05-10T06:09:30;16.02;;;4.03;;
57947;SDS011;43754;56.992;24.292;2023-05-10T06:12:04;18.20;;;4.53;;
57947;SDS011;43754;56.992;24.292;2023-05-10T06:14:36;13.25;;;4.05;;
57947;SDS011;43754;56.992;24.292;2023-05-10T06:17:08;12.90;;;4.15;;
57947;SDS011;43754;56.992;24.292;2023-05-10T06:19:40;12.75;;;4.22;;
57947;SDS011;43754;56.992;24.292;2023-05-10T06:22:12;12.98;;;4.13;;
57947;SDS011;43754;56.992;24.292;2023-05-10T06:24:44;14.20;;;3.65;;
57947;SDS011;43754;56.992;24.292;2023-05-10T06:27:18;15.05;;;3.92;;
57947;SDS011;43754;56.992;24.292;2023-05-10T06:29:50;7.40;;;3.53;;
57947;SDS011;43754;56.992;24.292;2023-05-10T06:32:29;21.17;;;3.53;;
57947;SDS011;43754;56.992;24.292;2023-05-10T06:35:01;12.43;;;3.63;;
57947;SDS011;43754;56.992;24.292;2023-05-10T06:37:34;14.50;;;4.18;;
57947;SDS011;43754;56.992;24.292;2023-05-10T06:40:06;7.50;;;3.50;;
57947;SDS011;43754;56.992;24.292;2023-05-10T06:42:40;11.07;;;5.13;;
57947;SDS011;43754;56.992;24.292;2023-05-10T06:45:12;11.82;;;3.90;;
57947;SDS011;43754;56.992;24.292;2023-05-10T06:47:46;17.27;;;3.33;;
57947;SDS011;43754;56.992;24.292;2023-05-10T06:50:18;11.50;;;3.47;;
57947;SDS011;43754;56.992;24.292;2023-05-10T06:52:50;10.38;;;3.28;;
57947;SDS011;43754;56.992;24.292;2023-05-10T06:55:23;9.38;;;3.25;;
57947;SDS011;43754;56.992;24.292;2023-05-10T06:57:57;9.75;;;3.35;;
57947;SDS011;43754;56.992;24.292;2023-05-10T07:00:29;10.70;;;3.38;;
57947;SDS011;43754;56.992;24.292;2023-05-10T07:03:01;7.75;;;2.78;;
57947;SDS011;43754;56.992;24.292;2023-05-10T07:05:33;12.32;;;4.07;;
57947;SDS011;43754;56.992;24.292;2023-05-10T07:08:05;8.52;;;3.33;;
57947;SDS011;43754;56.992;24.292;2023-05-10T07:10:37;9.27;;;3.20;;
57947;SDS011;43754;56.992;24.292;2023-05-10T07:13:10;15.35;;;3.97;;
57947;SDS011;43754;56.992;24.292;2023-05-10T07:15:42;11.07;;;2.80;;
57947;SDS011;43754;56.992;24.292;2023-05-10T07:18:14;6.57;;;2.70;;
57947;SDS011;43754;56.992;24.292;2023-05-10T07:20:46;12.50;;;2.67;;
57947;SDS011;43754;56.992;24.292;2023-05-10T07:23:18;15.38;;;2.97;;
57947;SDS011;43754;56.992;24.292;2023-05-10T07:25:51;12.93;;;3.00;;
57947;SDS011;43754;56.992;24.292;2023-05-10T07:28:25;5.95;;;2.75;;
57947;SDS011;43754;56.992;24.292;2023-05-10T07:30:57;9.88;;;2.80;;
57947;SDS011;43754;56.992;24.292;2023-05-10T07:33:29;8.10;;;2.70;;
57947;SDS011;43754;56.992;24.292;2023-05-10T07:36:01;9.65;;;2.60;;
57947;SDS011;43754;56.992;24.292;2023-05-10T07:38:33;6.35;;;2.60;;
57947;SDS011;43754;56.992;24.292;2023-05-10T07:41:05;11.70;;;2.85;;
57947;SDS011;43754;56.992;24.292;2023-05-10T07:43:38;7.22;;;2.95;;
57947;SDS011;43754;56.992;24.292;2023-05-10T07:46:11;7.68;;;2.85;;
57947;SDS011;43754;56.992;24.292;2023-05-10T07:48:43;6.65;;;2.88;;
57947;SDS011;43754;56.992;24.292;2023-05-10T07:51:15;7.88;;;2.72;;
57947;SDS011;43754;56.992;24.292;2023-05-10T07:53:47;19.50;;;3.15;;
57947;SDS011;43754;56.992;24.292;2023-05-10T07:56:20;6.07;;;2.40;;
57947;SDS011;43754;56.992;24.292;2023-05-10T07:58:55;5.25;;;1.98;;
57947;SDS011;43754;56.992;24.292;2023-05-10T08:01:29;6.25;;;2.08;;
57947;SDS011;43754;56.992;24.292;2023-05-10T08:04:03;4.72;;;2.00;;
57947;SDS011;43754;56.992;24.292;2023-05-10T08:06:35;5.38;;;2.08;;
57947;SDS011;43754;56.992;24.292;2023-05-10T08:09:08;6.57;;;2.38;;
57947;SDS011;43754;56.992;24.292;2023-05-10T08:11:40;8.60;;;2.72;;
57947;SDS011;43754;56.992;24.292;2023-05-10T08:14:13;4.07;;;2.38;;
57947;SDS011;43754;56.992;24.292;2023-05-10T08:16:45;7.28;;;2.40;;
57947;SDS011;43754;56.992;24.292;2023-05-10T08:19:17;10.18;;;2.70;;
57947;SDS011;43754;56.992;24.292;2023-05-10T08:21:52;4.30;;;2.42;;
57947;SDS011;43754;56.992;24.292;2023-05-10T08:24:26;4.43;;;2.13;;
57947;SDS011;43754;56.992;24.292;2023-05-10T08:26:58;10.18;;;2.38;;
57947;SDS011;43754;56.992;24.292;2023-05-10T08:29:32;54.00;;;5.03;;
57947;SDS011;43754;56.992;24.292;2023-05-10T08:32:20;3.78;;;2.53;;
57947;SDS011;43754;56.992;24.292;2023-05-10T08:34:52;8.05;;;2.40;;
57947;SDS011;43754;56.992;24.292;2023-05-10T08:37:24;5.50;;;2.30;;
57947;SDS011;43754;56.992;24.292;2023-05-10T08:39:56;5.82;;;2.10;;
57947;SDS011;43754;56.992;24.292;2023-05-10T08:42:28;7.72;;;2.55;;
57947;SDS011;43754;56.992;24.292;2023-05-10T08:45:04;6.75;;;2.42;;
57947;SDS011;43754;56.992;24.292;2023-05-10T08:47:38;5.57;;;2.25;;
57947;SDS011;43754;56.992;24.292;2023-05-10T08:50:11;6.15;;;2.20;;
57947;SDS011;43754;56.992;24.292;2023-05-10T08:52:43;7.60;;;2.30;;
57947;SDS011;43754;56.992;24.292;2023-05-10T08:55:19;3.92;;;2.20;;
57947;SDS011;43754;56.992;24.292;2023-05-10T08:57:52;8.02;;;2.83;;
57947;SDS011;43754;56.992;24.292;2023-05-10T09:00:26;7.30;;;2.55;;
57947;SDS011;43754;56.992;24.292;2023-05-10T09:02:58;6.45;;;2.60;;
57947;SDS011;43754;56.992;24.292;2023-05-10T09:05:31;4.65;;;2.53;;
57947;SDS011;43754;56.992;24.292;2023-05-10T09:08:03;6.60;;;2.30;;
57947;SDS011;43754;56.992;24.292;2023-05-10T09:10:35;8.05;;;2.50;;
57947;SDS011;43754;56.992;24.292;2023-05-10T09:13:10;3.42;;;2.42;;
57947;SDS011;43754;56.992;24.292;2023-05-10T09:15:44;8.85;;;2.38;;
57947;SDS011;43754;56.992;24.292;2023-05-10T09:18:16;6.32;;;2.47;;
57947;SDS011;43754;56.992;24.292;2023-05-10T09:20:49;7.55;;;2.78;;
57947;SDS011;43754;56.992;24.292;2023-05-10T09:23:21;4.68;;;3.00;;
57947;SDS011;43754;56.992;24.292;2023-05-10T09:26:01;6.50;;;2.53;;
57947;SDS011;43754;56.992;24.292;2023-05-10T09:28:34;3.97;;;2.67;;
57947;SDS011;43754;56.992;24.292;2023-05-10T09:31:23;9.00;;;2.47;;
57947;SDS011;43754;56.992;24.292;2023-05-10T09:33:57;7.70;;;2.55;;
57947;SDS011;43754;56.992;24.292;2023-05-10T09:36:29;9.65;;;3.08;;
57947;SDS011;43754;56.992;24.292;2023-05-10T09:39:01;9.13;;;3.85;;
57947;SDS011;43754;56.992;24.292;2023-05-10T09:41:33;8.10;;;2.97;;
57947;SDS011;43754;56.992;24.292;2023-05-10T09:44:06;7.55;;;2.47;;
57947;SDS011;43754;56.992;24.292;2023-05-10T09:46:40;5.13;;;2.63;;
57947;SDS011;43754;56.992;24.292;2023-05-10T09:49:14;4.15;;;2.30;;
57947;SDS011;43754;56.992;24.292;2023-05-10T09:51:46;8.52;;;2.30;;
57947;SDS011;43754;56.992;24.292;2023-05-10T09:54:18;5.38;;;2.60;;
57947;SDS011;43754;56.992;24.292;2023-05-10T09:56:50;5.30;;;2.53;;
57947;SDS011;43754;56.992;24.292;2023-05-10T09:59:22;4.95;;;2.40;;
57947;SDS011;43754;56.992;24.292;2023-05-10T10:01:59;13.50;;;3.03;;
57947;SDS011;43754;56.992;24.292;2023-05-10T10:04:32;13.77;;;3.08;;
57947;SDS011;43754;56.992;24.292;2023-05-10T10:07:10;10.02;;;2.40;;
57947;SDS011;43754;56.992;24.292;2023-05-10T10:09:42;12.88;;;4.97;;
57947;SDS011;43754;56.992;24.292;2023-05-10T10:12:14;12.98;;;4.80;;
57947;SDS011;43754;56.992;24.292;2023-05-10T10:14:46;6.85;;;2.75;;
57947;SDS011;43754;56.992;24.292;2023-05-10T10:17:21;9.80;;;2.45;;
57947;SDS011;43754;56.992;24.292;2023-05-10T10:19:53;11.10;;;3.85;;
57947;SDS011;43754;56.992;24.292;2023-05-10T10:22:26;7.32;;;2.67;;
57947;SDS011;43754;56.992;24.292;2023-05-10T10:24:58;7.82;;;4.18;;
57947;SDS011;43754;56.992;24.292;2023-05-10T10:27:34;9.02;;;3.35;;
57947;SDS011;43754;56.992;24.292;2023-05-10T10:30:17;5.93;;;3.25;;
57947;SDS011;43754;56.992;24.292;2023-05-10T10:33:13;14.35;;;2.80;;
57947;SDS011;43754;56.992;24.292;2023-05-10T10:36:00;12.75;;;5.22;;
57947;SDS011;43754;56.992;24.292;2023-05-10T10:38:37;5.03;;;2.80;;
57947;SDS011;43754;56.992;24.292;2023-05-10T10:41:30;6.05;;;2.80;;
57947;SDS011;43754;56.992;24.292;2023-05-10T10:44:26;5.20;;;2.50;;
57947;SDS011;43754;56.992;24.292;2023-05-10T10:47:21;7.50;;;3.60;;
57947;SDS011;43754;56.992;24.292;2023-05-10T10:50:05;8.93;;;3.33;;
57947;SDS011;43754;56.992;24.292;2023-05-10T10:52:39;5.75;;;2.58;;
57947;SDS011;43754;56.992;24.292;2023-05-10T10:55:12;7.05;;;2.47;;
57947;SDS011;43754;56.992;24.292;2023-05-10T10:57:46;3.45;;;2.33;;
57947;SDS011;43754;56.992;24.292;2023-05-10T11:00:23;230.95;;;98.68;;
57947;SDS011;43754;56.992;24.292;2023-05-10T11:02:58;81.63;;;50.53;;
57947;SDS011;43754;56.992;24.292;2023-05-10T11:05:37;185.75;;;117.43;;
57947;SDS011;43754;56.992;24.292;2023-05-10T11:08:17;88.33;;;62.73;;
57947;SDS011;43754;56.992;24.292;2023-05-10T11:13:27;6.65;;;3.75;;
57947;SDS011;43754;56.992;24.292;2023-05-10T11:16:09;6.07;;;2.40;;
57947;SDS011;43754;56.992;24.292;2023-05-10T11:18:57;7.10;;;2.50;;
57947;SDS011;43754;56.992;24.292;2023-05-10T11:21:44;7.33;;;4.23;;
57947;SDS011;43754;56.992;24.292;2023-05-10T11:24:18;43.60;;;38.85;;
57947;SDS011;43754;56.992;24.292;2023-05-10T11:26:52;104.32;;;92.95;;
57947;SDS011;43754;56.992;24.292;2023-05-10T11:29:25;141.88;;;128.00;;
57947;SDS011;43754;56.992;24.292;2023-05-10T11:31:58;52.05;;;46.83;;
57947;SDS011;43754;56.992;24.292;2023-05-10T11:34:31;32.05;;;28.75;;
57947;SDS011;43754;56.992;24.292;2023-05-10T11:37:07;6.22;;;3.90;;
57947;SDS011;43754;56.992;24.292;2023-05-10T11:39:45;4.82;;;2.40;;
57947;SDS011;43754;56.992;24.292;2023-05-10T11:42:20;8.20;;;2.42;;
57947;SDS011;43754;56.992;24.292;2023-05-10T11:44:52;5.82;;;2.60;;
57947;SDS011;43754;56.992;24.292;2023-05-10T11:47:24;5.53;;;2.70;;
57947;SDS011;43754;56.992;24.292;2023-05-10T11:49:56;7.78;;;2.63;;
57947;SDS011;43754;56.992;24.292;2023-05-10T11:52:30;8.80;;;2.50;;
57947;SDS011;43754;56.992;24.292;2023-05-10T11:55:07;8.70;;;2.50;;
57947;SDS011;43754;56.992;24.292;2023-05-10T11:57:39;7.50;;;2.67;;
57947;SDS011;43754;56.992;24.292;2023-05-10T12:00:13;7.47;;;2.95;;
57947;SDS011;43754;56.992;24.292;2023-05-10T12:02:46;8.82;;;2.80;;
57947;SDS011;43754;56.992;24.292;2023-05-10T12:05:19;3.22;;;2.50;;
57947;SDS011;43754;56.992;24.292;2023-05-10T12:07:52;11.25;;;2.42;;
57947;SDS011;43754;56.992;24.292;2023-05-10T12:10:25;2.92;;;2.08;;
57947;SDS011;43754;56.992;24.292;2023-05-10T12:12:58;10.63;;;2.40;;
57947;SDS011;43754;56.992;24.292;2023-05-10T12:15:30;5.93;;;2.15;;
57947;SDS011;43754;56.992;24.292;2023-05-10T12:18:02;32.10;;;3.50;;
57947;SDS011;43754;56.992;24.292;2023-05-10T12:20:34;4.72;;;2.42;;
57947;SDS011;43754;56.992;24.292;2023-05-10T12:23:09;7.03;;;2.13;;
57947;SDS011;43754;56.992;24.292;2023-05-10T12:25:42;7.55;;;2.58;;
57947;SDS011;43754;56.992;24.292;2023-05-10T12:28:14;11.13;;;2.83;;
57947;SDS011;43754;56.992;24.292;2023-05-10T12:30:46;3.42;;;2.45;;
57947;SDS011;43754;56.992;24.292;2023-05-10T12:33:18;6.65;;;2.28;;
57947;SDS011;43754;56.992;24.292;2023-05-10T12:35:50;5.13;;;2.20;;
57947;SDS011;43754;56.992;24.292;2023-05-10T12:38:29;3.35;;;2.15;;
57947;SDS011;43754;56.992;24.292;2023-05-10T12:41:04;10.25;;;2.05;;
57947;SDS011;43754;56.992;24.292;2023-05-10T12:43:37;13.13;;;2.88;;
57947;SDS011;43754;56.992;24.292;2023-05-10T12:46:10;6.63;;;2.53;;
57947;SDS011;43754;56.992;24.292;2023-05-10T12:48:43;3.88;;;2.20;;
57947;SDS011;43754;56.992;24.292;2023-05-10T12:51:17;3.97;;;2.25;;
57947;SDS011;43754;56.992;24.292;2023-05-10T12:53:54;6.28;;;2.30;;
57947;SDS011;43754;56.992;24.292;2023-05-10T12:56:26;5.93;;;2.17;;
57947;SDS011;43754;56.992;24.292;2023-05-10T12:58:58;5.43;;;2.60;;
57947;SDS011;43754;56.992;24.292;2023-05-10T13:01:30;3.53;;;2.47;;
57947;SDS011;43754;56.992;24.292;2023-05-10T13:04:02;5.57;;;2.42;;
57947;SDS011;43754;56.992;24.292;2023-05-10T13:06:34;2.92;;;2.20;;
57947;SDS011;43754;56.992;24.292;2023-05-10T13:09:08;6.30;;;2.50;;
57947;SDS011;43754;56.992;24.292;2023-05-10T13:11:40;7.22;;;2.53;;
57947;SDS011;43754;56.992;24.292;2023-05-10T13:14:12;6.78;;;2.92;;
57947;SDS011;43754;56.992;24.292;2023-05-10T13:16:44;4.20;;;2.55;;
57947;SDS011;43754;56.992;24.292;2023-05-10T13:19:16;6.28;;;2.50;;
57947;SDS011;43754;56.992;24.292;2023-05-10T13:21:49;10.73;;;2.70;;
57947;SDS011;43754;56.992;24.292;2023-05-10T13:24:22;9.25;;;2.15;;
57947;SDS011;43754;56.992;24.292;2023-05-10T13:26:54;22.73;;;3.08;;
57947;SDS011;43754;56.992;24.292;2023-05-10T13:29:26;6.15;;;2.58;;
57947;SDS011;43754;56.992;24.292;2023-05-10T13:31:58;9.73;;;2.95;;
57947;SDS011;43754;56.992;24.292;2023-05-10T13:34:30;3.72;;;2.20;;
57947;SDS011;43754;56.992;24.292;2023-05-10T13:37:03;5.80;;;2.47;;
57947;SDS011;43754;56.992;24.292;2023-05-10T13:39:36;5.75;;;2.03;;
57947;SDS011;43754;56.992;24.292;2023-05-10T13:42:09;9.07;;;2.55;;
57947;SDS011;43754;56.992;24.292;2023-05-10T13:44:41;19.73;;;3.30;;
57947;SDS011;43754;56.992;24.292;2023-05-10T13:47:12;6.13;;;2.40;;
57947;SDS011;43754;56.992;24.292;2023-05-10T13:49:44;5.65;;;2.17;;
57947;SDS011;43754;56.992;24.292;2023-05-10T13:52:16;6.43;;;2.78;;
57947;SDS011;43754;56.992;24.292;2023-05-10T13:54:50;6.15;;;2.67;;
57947;SDS011;43754;56.992;24.292;2023-05-10T13:57:23;6.65;;;2.17;;
57947;SDS011;43754;56.992;24.292;2023-05-10T13:59:55;7.05;;;2.30;;
57947;SDS011;43754;56.992;24.292;2023-05-10T14:02:28;6.70;;;3.08;;
57947;SDS011;43754;56.992;24.292;2023-05-10T14:05:00;4.82;;;2.50;;
57947;SDS011;43754;56.992;24.292;2023-05-10T14:07:32;2.80;;;2.22;;
57947;SDS011;43754;56.992;24.292;2023-05-10T14:10:06;4.30;;;2.63;;
57947;SDS011;43754;56.992;24.292;2023-05-10T14:12:38;6.15;;;2.95;;
57947;SDS011;43754;56.992;24.292;2023-05-10T14:15:10;10.00;;;2.67;;
57947;SDS011;43754;56.992;24.292;2023-05-10T14:17:43;5.20;;;2.50;;
57947;SDS011;43754;56.992;24.292;2023-05-10T14:20:15;4.03;;;2.03;;
57947;SDS011;43754;56.992;24.292;2023-05-10T14:22:47;3.80;;;2.40;;
57947;SDS011;43754;56.992;24.292;2023-05-10T14:25:20;7.00;;;2.40;;
57947;SDS011;43754;56.992;24.292;2023-05-10T14:27:52;5.95;;;2.22;;
57947;SDS011;43754;56.992;24.292;2023-05-10T14:30:25;11.27;;;2.60;;
57947;SDS011;43754;56.992;24.292;2023-05-10T14:32:57;7.22;;;2.33;;
57947;SDS011;43754;56.992;24.292;2023-05-10T14:35:30;13.43;;;2.80;;
57947;SDS011;43754;56.992;24.292;2023-05-10T14:38:04;8.18;;;3.30;;
57947;SDS011;43754;56.992;24.292;2023-05-10T14:40:38;8.13;;;2.38;;
57947;SDS011;43754;56.992;24.292;2023-05-10T14:43:10;27.98;;;3.20;;
57947;SDS011;43754;56.992;24.292;2023-05-10T14:45:42;6.00;;;2.40;;
57947;SDS011;43754;56.992;24.292;2023-05-10T14:48:14;8.35;;;4.25;;
57947;SDS011;43754;56.992;24.292;2023-05-10T14:50:48;6.75;;;2.72;;
57947;SDS011;43754;56.992;24.292;2023-05-10T14:53:21;11.18;;;2.60;;
57947;SDS011;43754;56.992;24.292;2023-05-10T14:55:55;6.03;;;2.90;;
57947;SDS011;43754;56.992;24.292;2023-05-10T14:58:27;9.57;;;2.80;;
57947;SDS011;43754;56.992;24.292;2023-05-10T15:00:59;3.03;;;2.25;;
57947;SDS011;43754;56.992;24.292;2023-05-10T15:03:31;5.60;;;2.45;;
57947;SDS011;43754;56.992;24.292;2023-05-10T15:06:04;3.70;;;2.50;;
57947;SDS011;43754;56.992;24.292;2023-05-10T15:08:37;8.98;;;2.50;;
57947;SDS011;43754;56.992;24.292;2023-05-10T15:11:10;12.65;;;2.40;;
57947;SDS011;43754;56.992;24.292;2023-05-10T15:13:42;5.38;;;2.55;;